Time;durP1;ratioP1;P1;durP2;ratioP2;P2;SDS_P1;SDS_P2;PMS_P1;PMS_P2;Temp;Humidity;BMP_temperature;BMP_pressure;BME280_temperature;BME280_humidity;BME280_pressure;Samples;Min_cycle;Max_cycle;Signal;HPM_P1;HPM_P2
2022/03/30 00:01:15;;;;;;;2.67;2.08;;;5.10;99.90;;;;;;5051141;28;20053;-75
2022/03/30 00:03:40;;;;;;;5.25;2.10;;;5.10;99.90;;;;;;5055434;28;20383;-73
2022/03/30 00:06:06;;;;;;;9.80;2.67;;;5.30;99.90;;;;;;5038483;28;20099;-74
2022/03/30 00:08:33;;;;;;;1.88;1.77;;;5.20;99.90;;;;;;5031355;28;20037;-76
2022/03/30 00:10:59;;;;;;;2.25;2.05;;;5.20;99.90;;;;;;5056693;28;20511;-75
2022/03/30 00:13:26;;;;;;;4.18;2.97;;;5.30;99.90;;;;;;5055334;28;20410;-74
2022/03/30 00:15:51;;;;;;;2.40;2.20;;;5.30;99.90;;;;;;5055596;28;20051;-76
2022/03/30 00:18:18;;;;;;;3.35;3.05;;;5.30;99.90;;;;;;5056480;28;20049;-73
2022/03/30 00:20:44;;;;;;;9.57;2.65;;;5.30;99.90;;;;;;5055977;28;20047;-75
2022/03/30 00:23:10;;;;;;;3.47;2.05;;;5.40;99.90;;;;;;5053853;28;20052;-74
2022/03/30 00:25:36;;;;;;;2.85;2.17;;;5.40;99.90;;;;;;5038366;28;20043;-74
2022/03/30 00:28:02;;;;;;;;;;;5.40;99.90;;;;;;5055918;28;20048;-74
2022/03/30 00:30:29;;;;;;;6.32;2.45;;;5.40;99.90;;;;;;5054610;28;19916;-75
2022/03/30 00:32:55;;;;;;;1.15;1.13;;;5.40;99.90;;;;;;5059936;28;20070;-77
2022/03/30 00:35:20;;;;;;;2.58;1.63;;;5.50;99.90;;;;;;5038253;28;20048;-75
2022/03/30 00:37:46;;;;;;;15.05;3.50;;;5.50;99.90;;;;;;5056818;28;20128;-75
2022/03/30 00:40:15;;;;;;;3.17;2.45;;;5.40;99.90;;;;;;5043027;28;20115;-74
2022/03/30 00:42:41;;;;;;;4.47;2.72;;;5.40;99.90;;;;;;5055212;28;20033;-75
2022/03/30 00:45:17;;;;;;;8.13;1.88;;;5.40;99.90;;;;;;5055365;28;20048;-73
2022/03/30 00:47:44;;;;;;;7.22;2.58;;;5.50;99.90;;;;;;5055233;28;20386;-74
2022/03/30 00:50:21;;;;;;;3.05;2.20;;;5.50;99.90;;;;;;5054452;28;20431;-75
2022/03/30 00:52:50;;;;;;;2.70;2.42;;;5.60;99.90;;;;;;5054174;28;20048;-75
2022/03/30 00:55:17;;;;;;;6.15;2.83;;;5.60;99.90;;;;;;5055031;28;20083;-76
2022/03/30 00:57:45;;;;;;;3.08;2.25;;;5.60;99.90;;;;;;5053808;28;20076;-75
2022/03/30 01:00:15;;;;;;;2.35;2.15;;;5.60;99.90;;;;;;5054783;28;20044;-77
2022/03/30 01:02:43;;;;;;;2.05;1.85;;;5.60;99.90;;;;;;5038905;28;20068;-75
2022/03/30 01:05:09;;;;;;;1.95;1.80;;;5.60;99.90;;;;;;5051535;28;20041;-74
2022/03/30 01:07:35;;;;;;;2.95;2.50;;;5.60;99.90;;;;;;5049881;28;20068;-76
2022/03/30 01:10:05;;;;;;;4.05;2.40;;;5.70;99.90;;;;;;5051764;28;20072;-74
2022/03/30 01:12:32;;;;;;;6.07;4.13;;;5.80;99.90;;;;;;5054925;28;20409;-76
2022/03/30 01:15:00;;;;;;;9.15;2.53;;;5.70;99.90;;;;;;5051819;28;20386;-76
2022/03/30 01:17:26;;;;;;;3.33;2.60;;;5.70;99.90;;;;;;5049755;28;20045;-73
2022/03/30 01:19:52;;;;;;;3.45;3.15;;;5.70;99.90;;;;;;5034656;28;20387;-74
2022/03/30 01:22:17;;;;;;;;;;;5.80;99.90;;;;;;5053864;28;20052;-74
2022/03/30 01:24:43;;;;;;;6.43;2.20;;;5.60;99.90;;;;;;5060839;28;19950;-75
2022/03/30 01:27:09;;;;;;;14.57;3.80;;;5.60;99.90;;;;;;5037685;28;20060;-74
2022/03/30 01:32:26;;;;;;;5.97;3.60;;;5.60;99.90;;;;;;5051238;28;20049;-76
2022/03/30 01:34:56;;;;;;;3.45;3.00;;;5.60;99.90;;;;;;5035497;28;20049;-76
2022/03/30 01:37:23;;;;;;;2.53;1.63;;;5.60;99.90;;;;;;5066274;28;20482;-72
2022/03/30 01:39:49;;;;;;;2.90;2.67;;;5.60;99.90;;;;;;5050826;28;20055;-76
2022/03/30 01:42:15;;;;;;;5.70;2.58;;;5.60;99.90;;;;;;5051597;28;20112;-74
2022/03/30 01:44:41;;;;;;;5.32;3.13;;;5.50;99.90;;;;;;5035307;28;20124;-77
2022/03/30 01:47:09;;;;;;;8.60;2.40;;;5.50;99.90;;;;;;5050368;28;20044;-74
2022/03/30 01:49:34;;;;;;;18.48;4.88;;;5.50;99.90;;;;;;5051679;28;20481;-73
2022/03/30 01:52:00;;;;;;;7.38;3.08;;;5.50;99.90;;;;;;5050463;28;20037;-74
2022/03/30 01:54:27;;;;;;;8.95;3.28;;;5.50;99.90;;;;;;5050648;28;20390;-75
2022/03/30 01:56:55;;;;;;;3.35;2.25;;;5.50;99.90;;;;;;5051412;28;20080;-77
2022/03/30 01:59:21;;;;;;;4.93;2.50;;;5.40;99.90;;;;;;5050151;28;20040;-76
2022/03/30 02:01:48;;;;;;;6.28;2.75;;;5.50;99.90;;;;;;5041414;28;20119;-76
2022/03/30 02:04:14;;;;;;;5.22;3.28;;;5.50;99.90;;;;;;5022890;28;20064;-75
2022/03/30 02:06:40;;;;;;;8.45;4.85;;;5.50;99.90;;;;;;5023188;28;20052;-76
2022/03/30 02:09:08;;;;;;;2.50;2.08;;;5.40;99.90;;;;;;5029070;28;20481;-77
2022/03/30 02:11:34;;;;;;;7.32;2.35;;;5.40;99.90;;;;;;5032365;28;20432;-74
2022/03/30 02:14:00;;;;;;;11.27;3.20;;;5.30;99.90;;;;;;5029886;28;20099;-74
2022/03/30 02:16:26;;;;;;;1.98;1.85;;;5.40;99.90;;;;;;5034387;28;20144;-76
2022/03/30 02:18:52;;;;;;;1.92;1.83;;;5.30;99.90;;;;;;5032716;28;20056;-76
2022/03/30 02:21:18;;;;;;;2.90;2.47;;;5.20;99.90;;;;;;5035444;28;20463;-74
2022/03/30 02:23:47;;;;;;;2.72;2.53;;;5.30;99.90;;;;;;5032915;28;20044;-73
2022/03/30 02:26:17;;;;;;;4.50;1.67;;;5.20;99.90;;;;;;4997682;28;20053;-75
2022/03/30 02:28:44;;;;;;;1.15;1.10;;;5.20;99.90;;;;;;5026914;28;20042;-74
2022/03/30 02:31:10;;;;;;;2.45;1.40;;;5.30;99.90;;;;;;5030442;28;20087;-74
2022/03/30 02:33:37;;;;;;;1.95;1.02;;;5.20;99.90;;;;;;5029133;28;20119;-77
2022/03/30 02:36:03;;;;;;;;;;;5.20;99.90;;;;;;5031867;28;20487;-75
2022/03/30 02:38:29;;;;;;;2.17;1.13;;;5.20;99.90;;;;;;5011990;28;19967;-76
2022/03/30 02:40:54;;;;;;;0.90;0.90;;;5.20;99.90;;;;;;5025003;28;20045;-73
2022/03/30 02:43:20;;;;;;;0.65;0.65;;;5.30;99.90;;;;;;5029726;28;20387;-75
2022/03/30 02:45:47;;;;;;;0.63;0.63;;;5.20;99.90;;;;;;5016732;28;20045;-75
2022/03/30 02:48:18;;;;;;;0.55;0.55;;;5.20;99.90;;;;;;5028900;28;20491;-76
2022/03/30 02:50:49;;;;;;;0.60;0.60;;;5.20;99.90;;;;;;5024944;28;20141;-75
2022/03/30 02:53:16;;;;;;;0.50;0.50;;;5.20;99.90;;;;;;5020337;28;20076;-77
2022/03/30 02:55:47;;;;;;;3.90;1.23;;;5.20;99.90;;;;;;5008218;28;20446;-77
2022/03/30 02:58:13;;;;;;;0.60;0.60;;;5.20;99.90;;;;;;5014634;28;20041;-77
2022/03/30 03:00:40;;;;;;;0.63;0.63;;;5.30;99.90;;;;;;5029895;28;20041;-73
2022/03/30 03:03:07;;;;;;;0.60;0.60;;;5.20;99.90;;;;;;5047147;28;20402;-75
2022/03/30 03:05:34;;;;;;;0.70;0.70;;;5.20;99.90;;;;;;5066064;28;20078;-74
2022/03/30 03:08:01;;;;;;;1.13;1.05;;;5.20;99.90;;;;;;5060520;28;20048;-74
2022/03/30 03:10:27;;;;;;;2.25;0.93;;;5.20;99.90;;;;;;5056658;28;20047;-75
2022/03/30 03:12:53;;;;;;;0.68;0.68;;;5.20;99.90;;;;;;5056561;28;20040;-76
2022/03/30 03:15:19;;;;;;;0.90;0.90;;;5.20;99.90;;;;;;5057867;28;20045;-77
2022/03/30 03:17:44;;;;;;;0.63;0.63;;;5.20;99.90;;;;;;5052576;28;20055;-74
2022/03/30 03:20:11;;;;;;;0.60;0.60;;;5.20;99.90;;;;;;5061548;28;20066;-75
2022/03/30 03:22:38;;;;;;;0.60;0.60;;;5.20;99.90;;;;;;5052254;28;20038;-77
2022/03/30 03:25:04;;;;;;;0.50;0.50;;;5.10;99.90;;;;;;5053516;28;20041;-76
2022/03/30 03:27:30;;;;;;;0.50;0.50;;;5.20;99.90;;;;;;5053300;28;20037;-76
2022/03/30 03:29:56;;;;;;;4.32;0.75;;;5.10;99.90;;;;;;5053313;28;20519;-76
2022/03/30 03:32:22;;;;;;;0.63;0.63;;;5.10;99.90;;;;;;5053122;28;20049;-76
2022/03/30 03:34:48;;;;;;;0.55;0.55;;;5.10;99.90;;;;;;5052721;28;20033;-75
2022/03/30 03:37:15;;;;;;;0.50;0.50;;;5.10;99.90;;;;;;5052379;28;20477;-75
2022/03/30 03:39:44;;;;;;;0.85;0.75;;;5.00;99.90;;;;;;5052721;28;20051;-77
2022/03/30 03:42:10;;;;;;;0.50;0.50;;;5.00;99.90;;;;;;5036349;28;20036;-74
2022/03/30 03:44:36;;;;;;;0.40;0.40;;;5.00;99.90;;;;;;5052273;28;20037;-74
2022/03/30 03:47:03;;;;;;;0.55;0.55;;;5.00;99.90;;;;;;5048657;28;20049;-78
2022/03/30 03:49:29;;;;;;;0.60;0.60;;;5.00;99.90;;;;;;5039375;28;20051;-76
2022/03/30 03:51:55;;;;;;;0.40;0.40;;;5.00;99.90;;;;;;5052343;28;20049;-78
2022/03/30 03:54:20;;;;;;;0.60;0.60;;;4.90;99.90;;;;;;5052658;28;20089;-77
2022/03/30 03:56:47;;;;;;;0.30;0.30;;;4.90;99.90;;;;;;5035999;28;20049;-74
2022/03/30 03:59:13;;;;;;;0.50;0.50;;;4.90;99.90;;;;;;5033018;28;20049;-75
2022/03/30 04:01:38;;;;;;;0.70;0.70;;;4.90;99.90;;;;;;5050310;28;20049;-74
2022/03/30 04:04:06;;;;;;;1.85;0.93;;;4.80;99.90;;;;;;5052576;28;20045;-77
2022/03/30 04:06:32;;;;;;;0.50;0.50;;;4.80;99.90;;;;;;5051264;28;20521;-73
2022/03/30 04:08:58;;;;;;;0.50;0.50;;;4.80;99.90;;;;;;5052412;28;20045;-76
2022/03/30 04:11:24;;;;;;;;;;;4.80;99.90;;;;;;5055003;28;20060;-77
2022/03/30 04:13:49;;;;;;;1.80;1.05;;;4.80;99.90;;;;;;5051518;28;19969;-75
2022/03/30 04:16:16;;;;;;;0.40;0.40;;;4.80;99.90;;;;;;5046470;28;20132;-78
2022/03/30 04:18:45;;;;;;;0.47;0.47;;;4.70;99.90;;;;;;5040483;28;20474;-76
2022/03/30 04:21:11;;;;;;;0.60;0.60;;;4.60;99.90;;;;;;5052237;28;20037;-75
2022/03/30 04:23:37;;;;;;;0.63;0.63;;;4.60;99.90;;;;;;5048881;28;20121;-73
2022/03/30 04:26:03;;;;;;;0.70;0.70;;;4.60;99.90;;;;;;5054956;28;20063;-74
2022/03/30 04:28:29;;;;;;;0.60;0.60;;;4.50;99.90;;;;;;5052646;28;20121;-78
2022/03/30 04:30:56;;;;;;;0.70;0.70;;;4.40;99.90;;;;;;5035114;28;20049;-76
2022/03/30 04:33:22;;;;;;;;;;;4.40;99.90;;;;;;5052396;28;20041;-76
2022/03/30 04:35:47;;;;;;;0.80;0.80;;;4.30;99.90;;;;;;5051988;28;20321;-77
2022/03/30 04:38:14;;;;;;;1.52;0.60;;;4.30;99.90;;;;;;5055321;28;20041;-76
2022/03/30 04:40:40;;;;;;;0.60;0.60;;;4.30;99.90;;;;;;5053275;28;20383;-80
2022/03/30 04:43:06;;;;;;;0.68;0.68;;;4.40;99.90;;;;;;5053705;28;20049;-75
2022/03/30 04:45:32;;;;;;;0.52;0.52;;;4.20;99.90;;;;;;5036304;28;20037;-74
2022/03/30 04:47:59;;;;;;;11.73;1.40;;;4.20;99.90;;;;;;5048315;28;20047;-75
2022/03/30 04:50:26;;;;;;;0.70;0.70;;;4.20;99.90;;;;;;5048164;28;20044;-75
2022/03/30 04:52:52;;;;;;;0.57;0.57;;;4.10;99.90;;;;;;5047197;28;20427;-74
2022/03/30 04:55:19;;;;;;;0.60;0.60;;;4.50;99.90;;;;;;5048155;28;20049;-75
2022/03/30 04:57:45;;;;;;;0.60;0.60;;;4.10;99.90;;;;;;5048171;28;20446;-73
2022/03/30 05:00:11;;;;;;;0.75;0.75;;;4.00;99.90;;;;;;5031245;28;20124;-75
2022/03/30 05:02:39;;;;;;;0.60;0.60;;;4.00;99.90;;;;;;5047479;28;20041;-73
2022/03/30 05:05:06;;;;;;;1.05;1.02;;;4.00;99.90;;;;;;5048516;28;20041;-74
2022/03/30 05:07:32;;;;;;;0.80;0.80;;;3.90;99.90;;;;;;5046698;28;20095;-76
2022/03/30 05:09:57;;;;;;;0.68;0.68;;;3.90;99.90;;;;;;5047697;28;20044;-77
2022/03/30 05:12:24;;;;;;;0.80;0.73;;;3.90;99.90;;;;;;5046764;28;20033;-75
2022/03/30 05:14:49;;;;;;;;;;;3.80;99.90;;;;;;5030676;28;20458;-75
2022/03/30 05:17:16;;;;;;;0.60;0.60;;;3.80;99.90;;;;;;5029769;28;19954;-75
2022/03/30 05:19:44;;;;;;;;;;;3.90;99.90;;;;;;5039738;28;20052;-77
2022/03/30 05:22:13;;;;;;;0.70;0.70;;;3.90;99.90;;;;;;5046691;28;19917;-76
2022/03/30 05:24:38;;;;;;;0.82;0.82;;;3.80;99.90;;;;;;5047662;28;20087;-75
2022/03/30 05:27:04;;;;;;;5.32;2.15;;;3.90;99.90;;;;;;5047904;28;20076;-75
2022/03/30 05:29:31;;;;;;;0.73;0.73;;;3.80;99.90;;;;;;5048969;28;20106;-77
2022/03/30 05:31:57;;;;;;;0.60;0.60;;;3.80;99.90;;;;;;5047104;28;20548;-75
2022/03/30 05:34:24;;;;;;;0.70;0.70;;;3.80;99.90;;;;;;5047571;28;20055;-75
2022/03/30 05:36:50;;;;;;;1.05;0.95;;;3.80;99.90;;;;;;5046505;28;20056;-75
2022/03/30 05:39:16;;;;;;;;;;;3.80;99.90;;;;;;5047831;28;20057;-76
2022/03/30 05:41:41;;;;;;;0.85;0.85;;;3.80;99.90;;;;;;5046389;28;20393;-74
2022/03/30 05:44:07;;;;;;;1.90;1.80;;;3.70;99.90;;;;;;5031133;28;20067;-77
2022/03/30 05:46:35;;;;;;;0.68;0.68;;;3.70;99.90;;;;;;5045757;28;20041;-74
2022/03/30 05:49:00;;;;;;;0.88;0.88;;;3.70;99.90;;;;;;5050855;28;20359;-75
2022/03/30 05:51:26;;;;;;;0.73;0.73;;;3.70;99.90;;;;;;5047583;28;20047;-76
2022/03/30 05:53:52;;;;;;;1.40;0.85;;;3.70;99.90;;;;;;5041165;28;20128;-76
2022/03/30 05:56:17;;;;;;;1.23;1.15;;;3.70;99.90;;;;;;5050003;28;20040;-75
2022/03/30 05:58:43;;;;;;;0.82;0.82;;;3.70;99.90;;;;;;5054440;28;20045;-76
2022/03/30 06:01:09;;;;;;;0.60;0.60;;;3.70;99.90;;;;;;5054213;28;20098;-75
2022/03/30 06:03:37;;;;;;;1.17;0.95;;;3.80;99.90;;;;;;5028934;28;20049;-76
2022/03/30 06:06:04;;;;;;;0.70;0.70;;;3.70;99.90;;;;;;5029708;28;20044;-77
2022/03/30 06:08:31;;;;;;;0.70;0.70;;;3.80;99.90;;;;;;5040182;28;20048;-76
2022/03/30 06:10:57;;;;;;;2.90;0.90;;;3.80;99.90;;;;;;5055639;28;20105;-73
2022/03/30 06:13:23;;;;;;;0.60;0.60;;;3.80;99.90;;;;;;5049335;28;20045;-75
2022/03/30 06:15:49;;;;;;;0.50;0.50;;;4.00;99.90;;;;;;5050706;28;20044;-77
2022/03/30 06:18:15;;;;;;;0.68;0.68;;;4.00;99.90;;;;;;5050935;28;20562;-77
2022/03/30 06:20:41;;;;;;;0.60;0.60;;;3.90;99.90;;;;;;5033231;28;20085;-75
2022/03/30 06:23:07;;;;;;;0.60;0.60;;;4.00;99.90;;;;;;5049288;28;20117;-76
2022/03/30 06:25:33;;;;;;;0.70;0.70;;;4.00;99.90;;;;;;5047784;28;20052;-75
2022/03/30 06:28:00;;;;;;;0.65;0.65;;;4.10;99.90;;;;;;5035659;28;20040;-75
2022/03/30 06:30:26;;;;;;;1.48;1.13;;;4.10;99.90;;;;;;5051122;28;20044;-73
2022/03/30 06:32:52;;;;;;;0.70;0.70;;;4.20;99.90;;;;;;5047095;28;20059;-73
2022/03/30 06:35:19;;;;;;;0.77;0.77;;;4.20;99.90;;;;;;5065125;28;20101;-74
2022/03/30 06:37:46;;;;;;;0.63;0.63;;;4.30;99.90;;;;;;5035285;28;20136;-74
2022/03/30 06:40:14;;;;;;;0.60;0.60;;;4.30;99.90;;;;;;5051186;28;20052;-78
2022/03/30 06:42:41;;;;;;;0.57;0.57;;;4.40;99.90;;;;;;5051750;28;20489;-75
2022/03/30 06:45:08;;;;;;;1.10;1.00;;;4.50;99.90;;;;;;5053083;28;20040;-75
2022/03/30 06:47:34;;;;;;;1.52;1.25;;;4.50;99.90;;;;;;5066566;28;20137;-72
2022/03/30 06:50:00;;;;;;;0.70;0.70;;;4.60;99.90;;;;;;5034571;28;20082;-75
2022/03/30 06:52:26;;;;;;;0.60;0.60;;;4.60;99.90;;;;;;5034752;28;20492;-76
2022/03/30 06:54:52;;;;;;;0.75;0.75;;;4.70;99.90;;;;;;5052713;28;20102;-75
2022/03/30 06:57:20;;;;;;;1.15;0.90;;;4.80;99.90;;;;;;5084325;28;20041;-76
2022/03/30 06:59:46;;;;;;;0.77;0.77;;;4.90;99.90;;;;;;5070686;28;20119;-71
2022/03/30 07:02:12;;;;;;;;;;;5.00;99.90;;;;;;5076675;28;20044;-73
2022/03/30 07:04:38;;;;;;;0.80;0.80;;;5.10;99.90;;;;;;5059786;28;19923;-75
2022/03/30 07:12:32;;;;;;;0.50;0.50;;;5.30;99.90;;;;;;5041392;28;20053;-73
2022/03/30 07:14:58;;;;;;;1.05;1.02;;;5.40;99.90;;;;;;5069172;28;20048;-74
2022/03/30 07:17:24;;;;;;;0.98;0.98;;;5.50;99.90;;;;;;5052157;28;20123;-76
2022/03/30 07:19:52;;;;;;;;;;;5.50;99.90;;;;;;5031285;28;20052;-70
2022/03/30 07:22:17;;;;;;;0.65;0.65;;;5.60;99.90;;;;;;5015603;28;19917;-73
2022/03/30 07:24:43;;;;;;;0.57;0.57;;;5.70;99.90;;;;;;5051578;28;20082;-74
2022/03/30 07:27:10;;;;;;;0.65;0.65;;;5.80;99.90;;;;;;5052561;28;20045;-71
2022/03/30 07:29:35;;;;;;;;;;;5.80;99.90;;;;;;5052820;28;20098;-71
2022/03/30 07:32:02;;;;;;;0.95;0.82;;;5.90;99.90;;;;;;5052097;28;19916;-73
2022/03/30 07:34:29;;;;;;;0.68;0.68;;;5.70;99.90;;;;;;5084308;28;20127;-71
2022/03/30 07:36:56;;;;;;;0.95;0.95;;;6.00;99.90;;;;;;5051193;28;20053;-75
2022/03/30 07:39:22;;;;;;;0.82;0.82;;;6.10;99.90;;;;;;5055383;28;20745;-74
2022/03/30 07:41:47;;;;;;;0.60;0.60;;;6.20;99.90;;;;;;5058679;28;20055;-73
2022/03/30 07:44:13;;;;;;;0.88;0.88;;;6.30;99.90;;;;;;5065890;28;20047;-72
2022/03/30 07:46:39;;;;;;;0.65;0.65;;;6.30;99.90;;;;;;5068121;28;20044;-74
2022/03/30 07:49:05;;;;;;;0.50;0.50;;;6.40;99.90;;;;;;5049001;28;20045;-73
2022/03/30 07:51:30;;;;;;;1.08;0.95;;;6.40;99.90;;;;;;5041566;28;20052;-75
2022/03/30 07:53:56;;;;;;;0.50;0.50;;;6.50;99.90;;;;;;5080505;28;20123;-72
2022/03/30 07:56:23;;;;;;;1.23;0.88;;;6.50;99.90;;;;;;5036227;28;20044;-73
2022/03/30 07:58:49;;;;;;;0.90;0.90;;;6.50;99.90;;;;;;5052236;28;20049;-72
2022/03/30 08:01:19;;;;;;;0.52;0.52;;;6.40;99.90;;;;;;5045308;28;20098;-73
2022/03/30 08:03:45;;;;;;;0.70;0.70;;;6.30;99.90;;;;;;5066847;28;20056;-74
2022/03/30 08:06:12;;;;;;;0.55;0.55;;;6.10;99.90;;;;;;5086099;28;20378;-74
2022/03/30 08:08:38;;;;;;;0.55;0.55;;;5.90;99.90;;;;;;5056173;28;20438;-74
2022/03/30 08:11:05;;;;;;;0.65;0.65;;;5.60;99.90;;;;;;5043236;28;20078;-74
2022/03/30 08:13:31;;;;;;;1.23;1.13;;;5.40;99.90;;;;;;5055184;28;20120;-74
2022/03/30 08:15:56;;;;;;;0.40;0.40;;;5.20;99.90;;;;;;5055227;28;20561;-75
2022/03/30 08:18:22;;;;;;;0.60;0.60;;;5.20;99.90;;;;;;5048258;28;20135;-75
2022/03/30 08:23:35;;;;;;;0.50;0.50;;;5.20;99.90;;;;;;5054754;28;20068;-73
2022/03/30 08:26:01;;;;;;;0.57;0.57;;;5.30;99.90;;;;;;5055642;28;20115;-75
2022/03/30 08:28:27;;;;;;;0.70;0.70;;;5.40;99.90;;;;;;5055579;28;20044;-75
2022/03/30 08:30:53;;;;;;;0.60;0.60;;;5.50;99.90;;;;;;5068434;28;20040;-74
2022/03/30 08:33:23;;;;;;;;;;;5.50;99.90;;;;;;5055514;28;20106;-74
2022/03/30 08:35:50;;;;;;;0.73;0.73;;;5.60;99.90;;;;;;5055529;28;19978;-73
2022/03/30 08:38:16;;;;;;;0.93;0.93;;;5.80;99.90;;;;;;5054116;28;20123;-74
2022/03/30 08:40:42;;;;;;;0.60;0.60;;;6.00;99.90;;;;;;5051991;28;20037;-71
2022/03/30 08:43:07;;;;;;;0.80;0.80;;;6.10;99.90;;;;;;5030047;28;20179;-74
2022/03/30 08:45:33;;;;;;;0.50;0.50;;;6.20;99.90;;;;;;5050399;28;20415;-75
2022/03/30 08:48:00;;;;;;;0.93;0.32;;;6.30;99.90;;;;;;5054947;28;20090;-72
2022/03/30 08:50:26;;;;;;;1.48;1.00;;;6.30;99.90;;;;;;5058641;28;20135;-74
2022/03/30 08:52:55;;;;;;;0.52;0.52;;;6.30;99.90;;;;;;5083433;28;20528;-73
2022/03/30 08:55:22;;;;;;;9.52;0.60;;;6.50;99.90;;;;;;5086760;28;20048;-71
2022/03/30 08:57:48;;;;;;;0.50;0.50;;;6.40;99.90;;;;;;5064171;28;20049;-73
2022/03/30 09:00:17;;;;;;;0.50;0.50;;;6.40;99.90;;;;;;5045019;28;20028;-72
2022/03/30 09:03:01;;;;;;;0.45;0.45;;;6.40;99.90;;;;;;5074639;28;20485;-72
2022/03/30 09:05:37;;;;;;;0.52;0.52;;;6.40;99.90;;;;;;5055114;28;20047;-72
2022/03/30 09:08:10;;;;;;;0.60;0.60;;;6.50;99.90;;;;;;5053580;28;20072;-74
2022/03/30 09:10:36;;;;;;;1.17;0.88;;;6.60;99.90;;;;;;5037831;28;20140;-73
2022/03/30 09:13:04;;;;;;;0.60;0.60;;;6.70;99.90;;;;;;5074793;28;20048;-74
2022/03/30 09:15:31;;;;;;;0.73;0.73;;;6.80;99.90;;;;;;5049246;28;20067;-72
2022/03/30 09:17:59;;;;;;;0.50;0.50;;;6.90;99.90;;;;;;5056095;28;20044;-71
2022/03/30 09:20:25;;;;;;;0.50;0.50;;;7.00;99.90;;;;;;5064632;28;20044;-73
2022/03/30 09:22:57;;;;;;;5.47;1.23;;;7.10;99.90;;;;;;5053047;28;20367;-70
2022/03/30 09:25:30;;;;;;;0.50;0.50;;;7.20;99.90;;;;;;5054350;28;20056;-72
2022/03/30 09:27:57;;;;;;;0.50;0.50;;;7.40;99.90;;;;;;5067011;28;20051;-74
2022/03/30 09:30:28;;;;;;;0.50;0.50;;;7.30;99.90;;;;;;5054253;28;20406;-74
2022/03/30 09:32:57;;;;;;;0.60;0.60;;;7.20;99.90;;;;;;5053609;28;20048;-73
2022/03/30 09:35:34;;;;;;;0.40;0.40;;;7.10;99.90;;;;;;5054643;28;20067;-71
2022/03/30 09:38:05;;;;;;;0.40;0.40;;;7.00;99.90;;;;;;5073257;28;20036;-72
2022/03/30 09:40:44;;;;;;;0.68;0.68;;;6.90;99.90;;;;;;5047633;28;20041;-76
2022/03/30 09:43:22;;;;;;;0.70;0.70;;;6.90;99.90;;;;;;5071962;28;20118;-76
2022/03/30 09:46:02;;;;;;;0.52;0.52;;;7.00;99.90;;;;;;5053420;28;20065;-72
2022/03/30 09:48:30;;;;;;;0.60;0.60;;;7.10;99.90;;;;;;5053654;28;20079;-75
2022/03/30 09:50:59;;;;;;;0.45;0.45;;;7.10;99.90;;;;;;5053194;28;20048;-72
2022/03/30 09:53:27;;;;;;;0.40;0.40;;;7.20;99.90;;;;;;5066252;28;20047;-74
2022/03/30 09:56:17;;;;;;;0.45;0.45;;;7.30;99.90;;;;;;5053585;28;20458;-74
2022/03/30 09:58:45;;;;;;;0.82;0.82;;;7.50;99.90;;;;;;5054028;28;20096;-71
2022/03/30 10:01:34;;;;;;;0.63;0.63;;;7.70;99.90;;;;;;5051468;28;20043;-70
2022/03/30 10:04:02;;;;;;;0.60;0.60;;;7.70;99.90;;;;;;5066114;28;20052;-72
2022/03/30 10:06:27;;;;;;;0.50;0.50;;;7.70;99.90;;;;;;5078097;28;20040;-72
2022/03/30 10:08:55;;;;;;;0.90;0.90;;;7.80;99.90;;;;;;5089434;28;20051;-74
2022/03/30 10:11:23;;;;;;;0.70;0.70;;;7.90;99.90;;;;;;5060012;28;20551;-75
2022/03/30 10:13:58;;;;;;;0.55;0.55;;;7.90;99.90;;;;;;5084008;28;20113;-75
2022/03/30 10:16:24;;;;;;;0.30;0.30;;;8.00;99.90;;;;;;5053665;28;20084;-73
2022/03/30 10:18:51;;;;;;;0.73;0.60;;;8.00;99.90;;;;;;5053219;28;20044;-74
2022/03/30 10:21:19;;;;;;;0.50;0.50;;;8.10;99.90;;;;;;5066141;28;20041;-73
2022/03/30 10:23:51;;;;;;;0.50;0.50;;;8.00;99.90;;;;;;5052384;28;20040;-72
2022/03/30 10:26:36;;;;;;;2.28;0.55;;;7.90;99.90;;;;;;5054691;28;20044;-72
2022/03/30 10:29:07;;;;;;;0.55;0.55;;;7.80;99.90;;;;;;5059086;28;20131;-72
2022/03/30 10:31:34;;;;;;;0.90;0.90;;;7.80;99.90;;;;;;5071083;28;20146;-71
2022/03/30 10:34:26;;;;;;;0.50;0.50;;;7.90;99.90;;;;;;5052878;28;20521;-73
2022/03/30 10:37:24;;;;;;;0.45;0.45;;;7.90;99.90;;;;;;5052172;28;20090;-73
2022/03/30 10:40:16;;;;;;;0.55;0.55;;;7.90;99.90;;;;;;5038910;28;20078;-71
2022/03/30 10:42:53;;;;;;;0.80;0.65;;;8.00;99.90;;;;;;5047638;28;20056;-73
2022/03/30 10:45:28;;;;;;;4.85;0.70;;;8.10;99.90;;;;;;5053307;28;20048;-73
2022/03/30 10:48:20;;;;;;;0.40;0.40;;;8.00;99.90;;;;;;5052245;28;20044;-72
2022/03/30 10:50:56;;;;;;;0.57;0.57;;;8.00;99.90;;;;;;5053993;28;20043;-72
2022/03/30 10:53:47;;;;;;;0.50;0.50;;;7.90;99.90;;;;;;5035337;28;20121;-74
2022/03/30 10:56:21;;;;;;;2.00;1.80;;;7.60;99.90;;;;;;5052247;28;20142;-74
2022/03/30 10:58:52;;;;;;;0.60;0.60;;;7.60;99.90;;;;;;5055471;28;20359;-72
2022/03/30 11:01:25;;;;;;;0.93;0.88;;;7.60;99.90;;;;;;5081904;28;20044;-74
2022/03/30 11:03:57;;;;;;;0.40;0.40;;;7.50;99.90;;;;;;5052658;28;20057;-73
2022/03/30 11:06:23;;;;;;;0.60;0.60;;;7.60;99.90;;;;;;5065797;28;20056;-73
2022/03/30 11:08:50;;;;;;;0.65;0.65;;;7.70;99.90;;;;;;5034978;28;20055;-71
2022/03/30 11:11:35;;;;;;;0.88;0.57;;;7.80;99.90;;;;;;5055368;28;20052;-76
2022/03/30 11:14:23;;;;;;;0.50;0.50;;;7.90;99.90;;;;;;5062915;28;20045;-74
2022/03/30 11:16:51;;;;;;;0.82;0.75;;;8.10;99.90;;;;;;5055611;28;20045;-72
2022/03/30 11:19:17;;;;;;;1.83;1.02;;;8.20;99.90;;;;;;5052331;28;20049;-73
2022/03/30 11:22:06;;;;;;;0.35;0.35;;;8.40;99.90;;;;;;5065156;28;20049;-70
2022/03/30 11:24:32;;;;;;;0.45;0.45;;;8.70;99.90;;;;;;5067475;28;20067;-74
2022/03/30 11:26:58;;;;;;;0.70;0.70;;;9.00;99.90;;;;;;5052442;28;20032;-74
2022/03/30 11:29:42;;;;;;;0.30;0.30;;;9.10;99.90;;;;;;5056185;28;20071;-72
2022/03/30 11:32:28;;;;;;;0.60;0.60;;;9.00;99.90;;;;;;5059533;28;20076;-71
2022/03/30 11:34:56;;;;;;;0.90;0.90;;;9.00;99.90;;;;;;5054412;28;20122;-72
2022/03/30 11:37:32;;;;;;;0.60;0.60;;;8.90;99.90;;;;;;5059260;28;20049;-73
2022/03/30 11:40:08;;;;;;;0.40;0.40;;;8.80;99.90;;;;;;5053898;28;20041;-72
2022/03/30 11:42:36;;;;;;;0.40;0.40;;;9.00;99.90;;;;;;5056236;28;20048;-75
2022/03/30 11:45:12;;;;;;;0.52;0.52;;;9.00;99.90;;;;;;5073927;28;20040;-73
2022/03/30 11:47:43;;;;;;;0.30;0.30;;;8.90;99.90;;;;;;5056058;28;20086;-74
2022/03/30 11:50:10;;;;;;;0.50;0.50;;;8.80;99.90;;;;;;5055882;28;20346;-74
2022/03/30 11:52:35;;;;;;;0.90;0.90;;;8.90;99.90;;;;;;5068515;28;20115;-74
2022/03/30 11:55:02;;;;;;;0.47;0.47;;;9.20;99.90;;;;;;5026248;28;20128;-73
2022/03/30 11:57:27;;;;;;;;;;;9.60;99.90;;;;;;5072824;28;20044;-75
2022/03/30 11:59:55;;;;;;;0.35;0.35;;;9.70;99.90;;;;;;5072193;28;20000;-74
2022/03/30 12:02:23;;;;;;;0.30;0.30;;;9.60;99.90;;;;;;5042619;28;20052;-74
2022/03/30 12:04:48;;;;;;;0.60;0.60;;;9.70;99.90;;;;;;5087805;28;20040;-73
2022/03/30 12:07:15;;;;;;;0.40;0.40;;;9.60;99.90;;;;;;5071713;28;20090;-73
2022/03/30 12:09:48;;;;;;;0.70;0.70;;;9.50;99.90;;;;;;5075063;28;20037;-74
2022/03/30 12:12:35;;;;;;;0.47;0.47;;;9.10;99.90;;;;;;5067003;28;20151;-70
2022/03/30 12:15:02;;;;;;;0.50;0.50;;;8.90;99.90;;;;;;5055372;28;20074;-73
2022/03/30 12:17:28;;;;;;;0.45;0.45;;;8.70;99.90;;;;;;5048156;28;20512;-74
2022/03/30 12:19:54;;;;;;;;;;;8.50;99.90;;;;;;5061943;28;20053;-72
2022/03/30 12:22:21;;;;;;;1.67;1.20;;;8.40;99.90;;;;;;5061836;28;19930;-73
2022/03/30 12:24:48;;;;;;;0.50;0.50;;;8.50;99.90;;;;;;5061680;28;20416;-75
2022/03/30 12:27:13;;;;;;;;;;;8.70;99.90;;;;;;5062913;28;20036;-73
2022/03/30 12:29:39;;;;;;;0.50;0.50;;;8.80;99.90;;;;;;5072543;28;19998;-73
2022/03/30 12:32:06;;;;;;;0.60;0.60;;;8.80;99.90;;;;;;5068057;28;20079;-73
2022/03/30 12:34:34;;;;;;;0.40;0.40;;;8.80;99.90;;;;;;5080391;28;20378;-73
2022/03/30 12:37:05;;;;;;;2.33;1.02;;;8.80;99.90;;;;;;5078800;28;20052;-71
2022/03/30 12:39:42;;;;;;;0.52;0.52;;;8.60;99.90;;;;;;5042894;28;20044;-70
2022/03/30 12:42:17;;;;;;;0.50;0.50;;;8.30;99.90;;;;;;5058927;28;20076;-75
2022/03/30 12:44:52;;;;;;;1.42;0.63;;;8.10;99.90;;;;;;5054710;28;20210;-73
2022/03/30 12:47:30;;;;;;;0.40;0.40;;;8.10;99.90;;;;;;5054294;28;20052;-73
2022/03/30 12:49:58;;;;;;;0.50;0.50;;;8.20;99.90;;;;;;5056593;28;20046;-72
2022/03/30 12:52:32;;;;;;;0.40;0.40;;;8.50;99.90;;;;;;5053355;28;20083;-72
2022/03/30 12:55:19;;;;;;;0.40;0.40;;;8.70;99.90;;;;;;5068117;28;20047;-73
2022/03/30 12:57:52;;;;;;;0.30;0.30;;;9.00;99.90;;;;;;5044038;28;20048;-72
2022/03/30 13:00:22;;;;;;;0.52;0.52;;;9.30;99.90;;;;;;5054463;28;20052;-72
2022/03/30 13:03:00;;;;;;;0.50;0.50;;;9.70;99.90;;;;;;5054330;28;20131;-71
2022/03/30 13:05:27;;;;;;;0.35;0.35;;;10.10;99.90;;;;;;5054613;28;20131;-72
2022/03/30 13:07:53;;;;;;;0.30;0.30;;;10.60;99.90;;;;;;5071839;28;20044;-73
2022/03/30 13:10:19;;;;;;;1.55;0.75;;;10.90;99.90;;;;;;5067959;28;20474;-71
2022/03/30 13:12:55;;;;;;;0.93;0.68;;;10.90;99.90;;;;;;5025281;28;20060;-72
2022/03/30 13:15:24;;;;;;;2.80;0.80;;;10.60;99.90;;;;;;5042475;28;20050;-71
2022/03/30 13:17:55;;;;;;;0.30;0.30;;;10.30;99.90;;;;;;5056212;28;20119;-71